PWSweather.com
Personal Weather Stations
Station Observations
METEOC500
Santo Antonio, FunchalPT 2020

Santo AntonioFunchalPT 2020

Lat: 32.678227, Lon: -16.945054

Elevation: 1669.94751

Station Type: WH Series

High Low Average
Temperature 72.9°F22.7°C 57.4°F14.1°C 62.4°F16.9°C
Dew Point 65.3°F18.5°C 50.9°F10.5°C 58.3°F14.6°C
Winds 7.8 mph 12.6 kmh Calm Calm 2.0 mph SW3.2 kmh SW
Wind Gusts 15.0 mph24.1 kmh -- 7.0 mph11.3 kmh
Humidity 98% 60% 87%
Pressure 29.98 in1015.2 mb 29.82 in1009.8 mb -
Precipitation 1.33 in33.8 mm - -
Hour Temp Dew Point Humidity Winds Wind Gusts Pressure Precip Precip Rate Daily Precip Total
12:02 AM 57.6°F14.2°C 52.2°F11.2°C 82% 2.2 mph NW3.5 kmh NW 4.9 mph7.9 kmh 29.98 in1015.2 mb 0.00 in0.0 mm 0.00 in0.0 mm 0.00 in0.0 mm
12:17 AM 57.4°F14.1°C 51.6°F10.9°C 81% Calm Calm 7.6 mph12.2 kmh 29.97 in1014.9 mb 0.00 in0.0 mm 0.00 in0.0 mm 0.00 in0.0 mm
12:32 AM 57.9°F14.4°C 52.5°F11.4°C 82% Calm Calm 2.5 mph4.0 kmh 29.96 in1014.6 mb 0.00 in0.0 mm 0.00 in0.0 mm 0.00 in0.0 mm
12:47 AM 58.1°F14.5°C 52.3°F11.3°C 81% 1.3 mph NW2.1 kmh NW 2.5 mph4.0 kmh 29.96 in1014.6 mb 0.00 in0.0 mm 0.00 in0.0 mm 0.00 in0.0 mm
01:02 AM 57.9°F14.4°C 52.7°F11.5°C 83% 3.8 mph NNW6.1 kmh NNW 7.6 mph12.2 kmh 29.96 in1014.6 mb 0.00 in0.0 mm 0.00 in0.0 mm 0.00 in0.0 mm
01:17 AM 57.6°F14.2°C 51.8°F11.0°C 81% 1.3 mph NW2.1 kmh NW 7.6 mph12.2 kmh 29.95 in1014.2 mb 0.00 in0.0 mm 0.00 in0.0 mm 0.00 in0.0 mm
01:33 AM 57.4°F14.1°C 50.9°F10.5°C 79% 4.5 mph NW7.2 kmh NW 7.6 mph12.2 kmh 29.95 in1014.2 mb 0.00 in0.0 mm 0.00 in0.0 mm 0.00 in0.0 mm
01:48 AM 58.1°F14.5°C 51.6°F10.9°C 79% Calm Calm 7.6 mph12.2 kmh 29.94 in1013.9 mb 0.00 in0.0 mm 0.00 in0.0 mm 0.00 in0.0 mm
02:03 AM 58.6°F14.8°C 53.4°F11.9°C 83% Calm Calm 4.9 mph7.9 kmh 29.93 in1013.5 mb 0.00 in0.0 mm 0.00 in0.0 mm 0.00 in0.0 mm
02:18 AM 58.5°F14.7°C 53.6°F12.0°C 84% 0.2 mph NW0.3 kmh NW 4.9 mph7.9 kmh 29.93 in1013.5 mb 0.00 in0.0 mm 0.00 in0.0 mm 0.00 in0.0 mm
02:33 AM 58.3°F14.6°C 52.9°F11.6°C 82% 1.8 mph NNW2.9 kmh NNW 10.1 mph16.3 kmh 29.93 in1013.5 mb 0.00 in0.0 mm 0.00 in0.0 mm 0.00 in0.0 mm
02:48 AM 58.6°F14.8°C 53.4°F11.9°C 83% 1.8 mph NW2.9 kmh NW 4.9 mph7.9 kmh 29.92 in1013.2 mb 0.00 in0.0 mm 0.00 in0.0 mm 0.00 in0.0 mm
03:03 AM 58.5°F14.7°C 54.3°F12.4°C 86% 1.8 mph NNW2.9 kmh NNW 4.9 mph7.9 kmh 29.91 in1012.9 mb 0.00 in0.0 mm 0.00 in0.0 mm 0.00 in0.0 mm
03:18 AM 57.9°F14.4°C 54.7°F12.6°C 89% 3.1 mph NW5.0 kmh NW 7.6 mph12.2 kmh 29.91 in1012.9 mb 0.01 in0.3 mm 0.04 in1.0 mm 0.01 in0.3 mm
03:33 AM 57.6°F14.2°C 55.0°F12.8°C 91% 0.7 mph NW1.1 kmh NW 7.6 mph12.2 kmh 29.91 in1012.9 mb 0.01 in0.3 mm 0.00 in0.0 mm 0.01 in0.3 mm
03:48 AM 57.6°F14.2°C 55.2°F12.9°C 92% 2.5 mph NNE4.0 kmh NNE 4.9 mph7.9 kmh 29.90 in1012.5 mb 0.02 in0.5 mm 0.04 in1.0 mm 0.02 in0.5 mm
04:03 AM 57.9°F14.4°C 55.6°F13.1°C 92% 2.2 mph 3.5 kmh 7.6 mph12.2 kmh 29.90 in1012.5 mb 0.04 in1.0 mm 0.03 in0.8 mm 0.04 in1.0 mm
04:19 AM 58.1°F14.5°C 56.1°F13.4°C 93% 1.8 mph NNW2.9 kmh NNW 4.9 mph7.9 kmh 29.90 in1012.5 mb 0.04 in1.0 mm 0.00 in0.0 mm 0.05 in1.3 mm
04:34 AM 58.1°F14.5°C 56.1°F13.4°C 93% Calm Calm 4.9 mph7.9 kmh 29.90 in1012.5 mb 0.04 in1.0 mm 0.00 in0.0 mm 0.06 in1.5 mm
04:49 AM 58.3°F14.6°C 56.5°F13.6°C 94% 1.8 mph NW2.9 kmh NW 4.9 mph7.9 kmh 29.88 in1011.9 mb 0.06 in1.5 mm 0.08 in2.0 mm 0.08 in2.0 mm
05:04 AM 58.3°F14.6°C 56.5°F13.6°C 94% Calm Calm 4.9 mph7.9 kmh 29.88 in1011.9 mb 0.06 in1.5 mm 0.00 in0.0 mm 0.09 in2.3 mm
05:19 AM 58.5°F14.7°C 57.0°F13.9°C 95% Calm Calm 2.5 mph4.0 kmh 29.87 in1011.5 mb 0.06 in1.5 mm 0.00 in0.0 mm 0.11 in2.8 mm
05:34 AM 58.6°F14.8°C 57.2°F14.0°C 95% 1.3 mph NNW2.1 kmh NNW 4.9 mph7.9 kmh 29.87 in1011.5 mb 0.08 in2.0 mm 0.08 in2.0 mm 0.14 in3.6 mm
05:49 AM 59.0°F15.0°C 57.6°F14.2°C 95% Calm Calm 4.9 mph7.9 kmh 29.87 in1011.5 mb 0.11 in2.8 mm 0.12 in3.0 mm 0.19 in4.8 mm
06:04 AM 59.2°F15.1°C 57.7°F14.3°C 95% Calm Calm 7.6 mph12.2 kmh 29.86 in1011.2 mb 0.13 in3.3 mm 0.03 in0.8 mm 0.22 in5.6 mm
06:19 AM 59.5°F15.3°C 58.5°F14.7°C 96% Calm Calm 7.6 mph12.2 kmh 29.86 in1011.2 mb 0.17 in4.3 mm 0.16 in4.1 mm 0.28 in7.1 mm
06:34 AM 60.1°F15.6°C 59.0°F15.0°C 96% 1.8 mph SSE2.9 kmh SSE 7.6 mph12.2 kmh 29.87 in1011.5 mb 0.25 in6.4 mm 0.32 in8.1 mm 0.39 in9.9 mm
06:49 AM 60.4°F15.8°C 59.4°F15.2°C 96% 4.5 mph ESE7.2 kmh ESE 12.5 mph20.1 kmh 29.86 in1011.2 mb 0.30 in7.6 mm 0.20 in5.1 mm 0.48 in12.2 mm
07:05 AM 60.8°F16.0°C 59.9°F15.5°C 97% 0.9 mph NNE1.4 kmh NNE 10.1 mph16.3 kmh 29.86 in1011.2 mb 0.34 in8.6 mm 0.05 in1.3 mm 0.58 in14.7 mm
07:20 AM 60.8°F16.0°C 59.9°F15.5°C 97% 0.7 mph N1.1 kmh N 7.6 mph12.2 kmh 29.86 in1011.2 mb 0.37 in9.4 mm 0.12 in3.0 mm 0.64 in16.3 mm
07:35 AM 61.0°F16.1°C 60.1°F15.6°C 97% 0.9 mph SW1.4 kmh SW 10.1 mph16.3 kmh 29.86 in1011.2 mb 0.31 in7.9 mm 0.00 in0.0 mm 0.71 in18.0 mm
07:50 AM 61.2°F16.2°C 60.3°F15.7°C 97% Calm Calm 4.9 mph7.9 kmh 29.86 in1011.2 mb 0.28 in7.1 mm 0.00 in0.0 mm 0.77 in19.6 mm
08:05 AM 61.3°F16.3°C 60.4°F15.8°C 97% 2.5 mph SE4.0 kmh SE 4.9 mph7.9 kmh 29.85 in1010.8 mb 0.28 in7.1 mm 0.00 in0.0 mm 0.86 in21.8 mm
08:20 AM 61.7°F16.5°C 60.8°F16.0°C 97% 4.5 mph WSW7.2 kmh WSW 10.1 mph16.3 kmh 29.86 in1011.2 mb 0.25 in6.4 mm 0.00 in0.0 mm 0.89 in22.6 mm
08:35 AM 62.1°F16.7°C 61.2°F16.2°C 97% 4.0 mph SW6.4 kmh SW 10.1 mph16.3 kmh 29.86 in1011.2 mb 0.22 in5.6 mm 0.00 in0.0 mm 0.93 in23.6 mm
08:50 AM 62.1°F16.7°C 61.5°F16.4°C 98% 1.6 mph S2.6 kmh S 15.0 mph24.1 kmh 29.85 in1010.8 mb 0.30 in7.6 mm 0.32 in8.1 mm 1.06 in26.9 mm
09:05 AM 62.4°F16.9°C 61.9°F16.6°C 98% Calm Calm 10.1 mph16.3 kmh 29.87 in1011.5 mb 0.28 in7.1 mm 0.00 in0.0 mm 1.15 in29.2 mm
09:20 AM 62.6°F17.0°C 62.1°F16.7°C 98% Calm Calm 4.9 mph7.9 kmh 29.87 in1011.5 mb 0.34 in8.6 mm 0.24 in6.1 mm 1.23 in31.2 mm
09:36 AM 62.8°F17.1°C 62.2°F16.8°C 98% 0.7 mph NE1.1 kmh NE 4.9 mph7.9 kmh 29.87 in1011.5 mb 0.33 in8.4 mm 0.00 in0.0 mm 1.26 in32.0 mm
09:51 AM 62.8°F17.1°C 62.2°F16.8°C 98% Calm Calm 4.9 mph7.9 kmh 29.86 in1011.2 mb 0.27 in6.9 mm 0.00 in0.0 mm 1.33 in33.8 mm
10:06 AM 63.0°F17.2°C 62.4°F16.9°C 98% Calm Calm 2.5 mph4.0 kmh 29.87 in1011.5 mb 0.18 in4.6 mm 0.00 in0.0 mm 1.33 in33.8 mm
10:21 AM 64.2°F17.9°C 63.3°F17.4°C 97% Calm Calm 2.5 mph4.0 kmh 29.86 in1011.2 mb 0.11 in2.8 mm 0.00 in0.0 mm 1.33 in33.8 mm
10:36 AM 65.7°F18.7°C 64.4°F18.0°C 96% 4.5 mph SSE7.2 kmh SSE 4.9 mph7.9 kmh 29.86 in1011.2 mb 0.07 in1.8 mm 0.00 in0.0 mm 1.33 in33.8 mm
10:51 AM 66.4°F19.1°C 64.2°F17.9°C 93% 5.4 mph SE8.7 kmh SE 7.6 mph12.2 kmh 29.86 in1011.2 mb 0.00 in0.0 mm 0.00 in0.0 mm 1.33 in33.8 mm
11:06 AM 67.1°F19.5°C 62.8°F17.1°C 86% 2.5 mph S4.0 kmh S 10.1 mph16.3 kmh 29.87 in1011.5 mb 0.00 in0.0 mm 0.00 in0.0 mm 1.33 in33.8 mm
11:21 AM 68.5°F20.3°C 65.1°F18.4°C 89% 4.7 mph E7.6 kmh E 10.1 mph16.3 kmh 29.87 in1011.5 mb 0.00 in0.0 mm 0.00 in0.0 mm 1.33 in33.8 mm
11:36 AM 68.4°F20.2°C 64.4°F18.0°C 87% 2.9 mph S4.7 kmh S 10.1 mph16.3 kmh 29.86 in1011.2 mb 0.00 in0.0 mm 0.00 in0.0 mm 1.33 in33.8 mm
11:51 AM 67.8°F19.9°C 62.4°F16.9°C 83% 1.8 mph S2.9 kmh S 7.6 mph12.2 kmh 29.87 in1011.5 mb 0.00 in0.0 mm 0.00 in0.0 mm 1.33 in33.8 mm
12:07 PM 69.1°F20.6°C 61.9°F16.6°C 78% 4.9 mph S7.9 kmh S 7.6 mph12.2 kmh 29.86 in1011.2 mb 0.00 in0.0 mm 0.00 in0.0 mm 1.33 in33.8 mm
12:22 PM 69.8°F21.0°C 61.5°F16.4°C 75% Calm Calm 7.6 mph12.2 kmh 29.85 in1010.8 mb 0.00 in0.0 mm 0.00 in0.0 mm 1.33 in33.8 mm
12:37 PM 70.3°F21.3°C 63.1°F17.3°C 78% 2.9 mph SW4.7 kmh SW 7.6 mph12.2 kmh 29.85 in1010.8 mb 0.00 in0.0 mm 0.00 in0.0 mm 1.33 in33.8 mm
12:52 PM 69.6°F20.9°C 63.1°F17.3°C 80% 1.3 mph SSW2.1 kmh SSW 10.1 mph16.3 kmh 29.85 in1010.8 mb 0.00 in0.0 mm 0.00 in0.0 mm 1.33 in33.8 mm
01:07 PM 69.1°F20.6°C 60.8°F16.0°C 75% 4.5 mph SSE7.2 kmh SSE 7.6 mph12.2 kmh 29.84 in1010.5 mb 0.00 in0.0 mm 0.00 in0.0 mm 1.33 in33.8 mm
01:22 PM 69.6°F20.9°C 57.7°F14.3°C 66% 2.5 mph SE4.0 kmh SE 12.5 mph20.1 kmh 29.83 in1010.2 mb 0.00 in0.0 mm 0.00 in0.0 mm 1.33 in33.8 mm
01:37 PM 70.7°F21.5°C 56.7°F13.7°C 61% 1.8 mph SSW2.9 kmh SSW 7.6 mph12.2 kmh 29.83 in1010.2 mb 0.00 in0.0 mm 0.00 in0.0 mm 1.33 in33.8 mm
01:52 PM 72.1°F22.3°C 57.6°F14.2°C 60% 4.5 mph S7.2 kmh S 7.6 mph12.2 kmh 29.83 in1010.2 mb 0.00 in0.0 mm 0.00 in0.0 mm 1.33 in33.8 mm
02:07 PM 72.9°F22.7°C 63.7°F17.6°C 73% 0.9 mph S1.4 kmh S 7.6 mph12.2 kmh 29.83 in1010.2 mb 0.00 in0.0 mm 0.00 in0.0 mm 1.33 in33.8 mm
02:22 PM 71.4°F21.9°C 65.3°F18.5°C 81% 1.3 mph S2.1 kmh S 10.1 mph16.3 kmh 29.83 in1010.2 mb 0.00 in0.0 mm 0.00 in0.0 mm 1.33 in33.8 mm
02:37 PM 69.4°F20.8°C 63.3°F17.4°C 81% 3.4 mph SSW5.5 kmh SSW 10.1 mph16.3 kmh 29.82 in1009.8 mb 0.00 in0.0 mm 0.00 in0.0 mm 1.33 in33.8 mm
02:53 PM 69.1°F20.6°C 63.3°F17.4°C 82% 4.0 mph S6.4 kmh S 7.6 mph12.2 kmh 29.83 in1010.2 mb 0.00 in0.0 mm 0.00 in0.0 mm 1.33 in33.8 mm
03:08 PM 68.9°F20.5°C 63.1°F17.3°C 82% 3.1 mph SSW5.0 kmh SSW 7.6 mph12.2 kmh 29.83 in1010.2 mb 0.00 in0.0 mm 0.00 in0.0 mm 1.33 in33.8 mm
03:23 PM 68.5°F20.3°C 62.8°F17.1°C 82% 3.4 mph S5.5 kmh S 7.6 mph12.2 kmh 29.83 in1010.2 mb 0.00 in0.0 mm 0.00 in0.0 mm 1.33 in33.8 mm
03:38 PM 68.5°F20.3°C 62.1°F16.7°C 80% 3.1 mph S5.0 kmh S 10.1 mph16.3 kmh 29.83 in1010.2 mb 0.00 in0.0 mm 0.00 in0.0 mm 1.33 in33.8 mm
03:53 PM 68.2°F20.1°C 62.4°F16.9°C 82% Calm Calm 10.1 mph16.3 kmh 29.83 in1010.2 mb 0.00 in0.0 mm 0.00 in0.0 mm 1.33 in33.8 mm
04:08 PM 67.8°F19.9°C 62.4°F16.9°C 83% 4.9 mph S7.9 kmh S 10.1 mph16.3 kmh 29.84 in1010.5 mb 0.00 in0.0 mm 0.00 in0.0 mm 1.33 in33.8 mm
04:23 PM 67.3°F19.6°C 62.2°F16.8°C 84% 2.9 mph SSW4.7 kmh SSW 7.6 mph12.2 kmh 29.84 in1010.5 mb 0.00 in0.0 mm 0.00 in0.0 mm 1.33 in33.8 mm
04:38 PM 66.6°F19.2°C 61.2°F16.2°C 83% 4.7 mph S7.6 kmh S 7.6 mph12.2 kmh 29.85 in1010.8 mb 0.00 in0.0 mm 0.00 in0.0 mm 1.33 in33.8 mm
04:53 PM 66.2°F19.0°C 62.2°F16.8°C 87% 2.2 mph S3.5 kmh S 7.6 mph12.2 kmh 29.85 in1010.8 mb 0.00 in0.0 mm 0.00 in0.0 mm 1.33 in33.8 mm
05:08 PM 65.5°F18.6°C 61.9°F16.6°C 88% 2.2 mph S3.5 kmh S 10.1 mph16.3 kmh 29.86 in1011.2 mb 0.00 in0.0 mm 0.00 in0.0 mm 1.33 in33.8 mm
05:23 PM 64.8°F18.2°C 62.1°F16.7°C 91% 1.8 mph SSW2.9 kmh SSW 4.9 mph7.9 kmh 29.86 in1011.2 mb 0.00 in0.0 mm 0.00 in0.0 mm 1.33 in33.8 mm
05:38 PM 64.0°F17.8°C 61.7°F16.5°C 92% Calm Calm 2.5 mph4.0 kmh 29.87 in1011.5 mb 0.00 in0.0 mm 0.00 in0.0 mm 1.33 in33.8 mm
05:54 PM 63.5°F17.5°C 61.5°F16.4°C 93% Calm Calm -- 29.87 in1011.5 mb 0.00 in0.0 mm 0.00 in0.0 mm 1.33 in33.8 mm
06:09 PM 63.3°F17.4°C 61.3°F16.3°C 93% Calm Calm 2.5 mph4.0 kmh 29.88 in1011.9 mb 0.00 in0.0 mm 0.00 in0.0 mm 1.33 in33.8 mm
06:24 PM 63.1°F17.3°C 61.2°F16.2°C 93% Calm Calm 2.5 mph4.0 kmh 29.88 in1011.9 mb 0.00 in0.0 mm 0.00 in0.0 mm 1.33 in33.8 mm
06:39 PM 62.4°F16.9°C 60.1°F15.6°C 92% 2.9 mph NNW4.7 kmh NNW 4.9 mph7.9 kmh 29.88 in1011.9 mb 0.00 in0.0 mm 0.00 in0.0 mm 1.33 in33.8 mm
06:54 PM 61.7°F16.5°C 58.5°F14.7°C 89% 3.1 mph NNW5.0 kmh NNW 7.6 mph12.2 kmh 29.89 in1012.2 mb 0.00 in0.0 mm 0.00 in0.0 mm 1.33 in33.8 mm
07:09 PM 61.3°F16.3°C 57.4°F14.1°C 87% 4.9 mph NNW7.9 kmh NNW 7.6 mph12.2 kmh 29.89 in1012.2 mb 0.00 in0.0 mm 0.00 in0.0 mm 1.33 in33.8 mm
07:24 PM 61.2°F16.2°C 56.7°F13.7°C 85% 2.2 mph NW3.5 kmh NW 10.1 mph16.3 kmh 29.90 in1012.5 mb 0.00 in0.0 mm 0.00 in0.0 mm 1.33 in33.8 mm
07:39 PM 60.8°F16.0°C 56.3°F13.5°C 85% 3.4 mph NNW5.5 kmh NNW 7.6 mph12.2 kmh 29.90 in1012.5 mb 0.00 in0.0 mm 0.00 in0.0 mm 1.33 in33.8 mm
07:54 PM 60.6°F15.9°C 56.5°F13.6°C 86% 3.1 mph NNW5.0 kmh NNW 7.6 mph12.2 kmh 29.91 in1012.9 mb 0.00 in0.0 mm 0.00 in0.0 mm 1.33 in33.8 mm
08:09 PM 60.3°F15.7°C 55.4°F13.0°C 84% 5.6 mph N9.0 kmh N 7.6 mph12.2 kmh 29.92 in1013.2 mb 0.00 in0.0 mm 0.00 in0.0 mm 1.33 in33.8 mm
08:24 PM 60.1°F15.6°C 55.9°F13.3°C 86% 4.0 mph N6.4 kmh N 7.6 mph12.2 kmh 29.92 in1013.2 mb 0.00 in0.0 mm 0.00 in0.0 mm 1.33 in33.8 mm
08:39 PM 59.7°F15.4°C 54.5°F12.5°C 83% 3.4 mph N5.5 kmh N 10.1 mph16.3 kmh 29.93 in1013.5 mb 0.00 in0.0 mm 0.00 in0.0 mm 1.33 in33.8 mm
08:55 PM 59.9°F15.5°C 55.4°F13.0°C 85% 4.0 mph NNW6.4 kmh NNW 7.6 mph12.2 kmh 29.93 in1013.5 mb 0.00 in0.0 mm 0.00 in0.0 mm 1.33 in33.8 mm
09:10 PM 60.1°F15.6°C 55.2°F12.9°C 84% 5.6 mph NNW9.0 kmh NNW 7.6 mph12.2 kmh 29.94 in1013.9 mb 0.00 in0.0 mm 0.00 in0.0 mm 1.33 in33.8 mm
09:25 PM 59.7°F15.4°C 54.0°F12.2°C 81% 7.6 mph NNW12.2 kmh NNW 10.1 mph16.3 kmh 29.94 in1013.9 mb 0.00 in0.0 mm 0.00 in0.0 mm 1.33 in33.8 mm
09:40 PM 59.4°F15.2°C 52.9°F11.6°C 79% 4.7 mph NNW7.6 kmh NNW 10.1 mph16.3 kmh 29.95 in1014.2 mb 0.00 in0.0 mm 0.00 in0.0 mm 1.33 in33.8 mm
09:55 PM 59.2°F15.1°C 53.4°F11.9°C 81% 4.7 mph NNW7.6 kmh NNW 7.6 mph12.2 kmh 29.95 in1014.2 mb 0.00 in0.0 mm 0.00 in0.0 mm 1.33 in33.8 mm
10:10 PM 59.4°F15.2°C 53.8°F12.1°C 82% 5.4 mph N8.7 kmh N 7.6 mph12.2 kmh 29.96 in1014.6 mb 0.00 in0.0 mm 0.00 in0.0 mm 1.33 in33.8 mm
10:25 PM 59.5°F15.3°C 54.7°F12.6°C 84% 3.8 mph N6.1 kmh N 10.1 mph16.3 kmh 29.95 in1014.2 mb 0.00 in0.0 mm 0.00 in0.0 mm 1.33 in33.8 mm
10:40 PM 59.4°F15.2°C 54.5°F12.5°C 84% 7.8 mph NNW12.6 kmh NNW 10.1 mph16.3 kmh 29.95 in1014.2 mb 0.00 in0.0 mm 0.00 in0.0 mm 1.33 in33.8 mm
10:55 PM 59.2°F15.1°C 54.0°F12.2°C 83% 7.2 mph N11.6 kmh N 10.1 mph16.3 kmh 29.95 in1014.2 mb 0.00 in0.0 mm 0.00 in0.0 mm 1.33 in33.8 mm
11:10 PM 58.8°F14.9°C 53.1°F11.7°C 81% 4.9 mph N7.9 kmh N 10.1 mph16.3 kmh 29.96 in1014.6 mb 0.00 in0.0 mm 0.00 in0.0 mm 1.33 in33.8 mm
11:25 PM 58.6°F14.8°C 52.5°F11.4°C 80% 4.7 mph NNW7.6 kmh NNW 7.6 mph12.2 kmh 29.96 in1014.6 mb 0.00 in0.0 mm 0.00 in0.0 mm 1.33 in33.8 mm
11:41 PM 58.6°F14.8°C 52.2°F11.2°C 79% 3.8 mph NNW6.1 kmh NNW 7.6 mph12.2 kmh 29.96 in1014.6 mb 0.00 in0.0 mm 0.00 in0.0 mm 1.33 in33.8 mm
11:56 PM 59.0°F15.0°C 53.6°F12.0°C 82% 5.4 mph NNW8.7 kmh NNW 7.6 mph12.2 kmh 29.96 in1014.6 mb 0.00 in0.0 mm 0.00 in0.0 mm 1.33 in33.8 mm